DUB Airport (Dubois Muni) Information

FAA: DUB - ICAO: KDUB

DUB Airport Location

State Wyoming
County Fremont
City Dubois
DUB Airport is 3 miles northwest of Dubois, WY.
Latitude 43-32-55.1450N
Longitude 109-41-26.9800W
Elevation 7,298ft

KDUB Airport METARs

METAR KDUB 190015Z AUTO 11005KT 10SM SCT080 09/M03 A2984 RMK AO2
Altimeter 29.84"
Temperature 9.0°C (48.2°F)
Wind 110° at 5KT
Clouds scattered at 8,000ft
Visibility 10.0mi
Time observed: 2021-10-19T00:15:00Z

DUB Airport Details

Status Operational
Activation September 1957
Ownership Public
Usage Public
Chart SALT LAKE CITY
ATC on-site No
Beacon schedule sunset-sunrise
Beacon color clear green

DUB Airport Contacts

Owner TOWN OF DUBOIS
Owner address BOX 555, DUBOIS, WY 82513
Owner phone 307-455-2345
Manager ROBIN IRWIN
Manager address BOX 2001, CASPER, WY 82602
Manager phone 307-262-0606

DUB Airport (Dubois Muni) Radio Frequencies

DUB (Airport) Radio Frequencies

UNICOM N/A
Common traffic advisory frequency (CTAF) 122.9